createdAt,value
2022-10-01T00:00:27.004Z,13.23
2022-10-01T00:01:00.204Z,14.80
2022-10-01T00:01:32.391Z,15.73
2022-10-01T00:02:05.121Z,18.10
2022-10-01T00:02:38.518Z,18.23
2022-10-01T00:03:10.348Z,17.38
2022-10-01T00:03:42.834Z,14.63
2022-10-01T00:04:14.633Z,16.63
2022-10-01T00:04:47.050Z,17.40
2022-10-01T00:05:18.849Z,17.92
2022-10-01T00:06:10.478Z,15.50
2022-10-01T00:06:42.325Z,19.33
2022-10-01T00:07:15.274Z,17.92
2022-10-01T00:07:47.494Z,16.63
2022-10-01T00:08:19.289Z,14.45
2022-10-01T00:08:51.124Z,18.30
2022-10-01T00:09:22.965Z,20.23
2022-10-01T00:09:54.720Z,17.48
2022-10-01T00:10:26.783Z,15.88
2022-10-01T00:11:01.650Z,16.65
2022-10-01T00:11:34.346Z,16.20
2022-10-01T00:12:08.265Z,17.05
2022-10-01T00:12:46.116Z,17.60
2022-10-01T00:13:17.938Z,16.33
2022-10-01T00:13:50.796Z,18.45
2022-10-01T00:14:22.807Z,17.33
2022-10-01T00:14:54.546Z,17.38
2022-10-01T00:15:26.487Z,18.45
2022-10-01T00:15:59.385Z,15.70
2022-10-01T00:16:31.538Z,17.92
2022-10-01T00:17:03.317Z,17.90
2022-10-01T00:17:36.476Z,17.13
2022-10-01T00:18:10.579Z,20.15
2022-10-01T00:18:44.176Z,17.20
2022-10-01T00:19:15.947Z,17.05
2022-10-01T00:19:47.707Z,17.60
2022-10-01T00:20:19.624Z,18.65
2022-10-01T00:20:51.382Z,17.98
2022-10-01T00:21:29.107Z,18.98
2022-10-01T00:22:01.053Z,16.88
2022-10-01T00:22:34.688Z,18.85
2022-10-01T00:23:06.443Z,23.20
2022-10-01T00:23:38.512Z,18.80
2022-10-01T00:24:14.035Z,17.20
2022-10-01T00:24:47.246Z,15.48
2022-10-01T00:25:19.970Z,14.98
2022-10-01T00:25:52.209Z,16.25
2022-10-01T00:26:27.273Z,19.40
2022-10-01T00:26:59.752Z,17.83
2022-10-01T00:27:31.796Z,16.23
2022-10-01T00:28:03.763Z,18.52
2022-10-01T00:28:35.563Z,19.77
2022-10-01T00:29:12.046Z,19.83
2022-10-01T00:29:45.401Z,16.80
2022-10-01T00:30:17.637Z,18.23
2022-10-01T00:30:49.404Z,24.83
2022-10-01T00:31:22.211Z,17.15
2022-10-01T00:31:54.105Z,16.80
2022-10-01T00:32:25.966Z,15.32
2022-10-01T00:32:58.774Z,18.02
2022-10-01T00:33:30.732Z,17.77
2022-10-01T00:34:03.492Z,17.80
2022-10-01T00:34:35.287Z,19.02
2022-10-01T00:35:09.902Z,20.42
2022-10-01T00:35:41.749Z,17.65
2022-10-01T00:36:13.553Z,19.13
2022-10-01T00:36:45.368Z,18.85
2022-10-01T00:37:18.190Z,20.83
2022-10-01T00:37:52.154Z,19.05
2022-10-01T00:38:24.186Z,20.17
2022-10-01T00:39:02.073Z,16.67
2022-10-01T00:39:33.845Z,17.98
2022-10-01T00:40:07.229Z,19.02
2022-10-01T00:40:39.104Z,18.20
2022-10-01T00:41:10.927Z,18.38
2022-10-01T00:41:43.970Z,19.73
2022-10-01T00:42:25.452Z,17.88
2022-10-01T00:42:57.212Z,17.80
2022-10-01T00:43:31.991Z,18.75
2022-10-01T00:44:37.240Z,19.23
2022-10-01T00:45:11.598Z,17.98
2022-10-01T00:45:43.669Z,19.55
2022-10-01T00:46:33.843Z,19.40
2022-10-01T00:47:21.426Z,17.10
2022-10-01T00:47:57.344Z,18.85
2022-10-01T00:48:32.234Z,17.88
2022-10-01T00:49:09.240Z,18.65
2022-10-01T00:49:43.167Z,18.42
2022-10-01T00:50:38.006Z,19.98
2022-10-01T00:51:10.261Z,23.05
2022-10-01T00:51:58.071Z,16.73
2022-10-01T00:52:34.417Z,19.83
2022-10-01T00:53:11.978Z,20.50
2022-10-01T00:53:46.115Z,18.73
2022-10-01T00:54:31.921Z,19.48
2022-10-01T00:55:09.449Z,20.38
2022-10-01T00:55:45.404Z,17.00
2022-10-01T00:56:17.337Z,17.67
2022-10-01T00:56:53.509Z,18.45
2022-10-01T00:57:27.162Z,19.08
2022-10-01T00:57:59.004Z,18.52
2022-10-01T00:58:31.164Z,18.25
2022-10-01T00:59:03.805Z,18.38
2022-10-01T00:59:36.839Z,18.02
2022-10-01T01:00:10.884Z,19.13
2022-10-01T01:00:43.294Z,17.10
2022-10-01T01:01:15.098Z,19.48
2022-10-01T01:01:47.038Z,19.63
2022-10-01T01:02:19.074Z,19.33
2022-10-01T01:02:51.232Z,18.95
2022-10-01T01:03:23.323Z,18.88
2022-10-01T01:03:56.782Z,17.92
2022-10-01T01:04:28.558Z,17.33
2022-10-01T01:05:01.372Z,17.75
2022-10-01T01:05:34.857Z,17.30
2022-10-01T01:06:09.618Z,20.00
2022-10-01T01:06:41.789Z,17.58
2022-10-01T01:07:14.347Z,18.73
2022-10-01T01:07:49.299Z,18.45
2022-10-01T01:08:21.188Z,20.38
2022-10-01T01:08:55.178Z,18.38
2022-10-01T01:09:33.558Z,17.80
2022-10-01T01:10:07.303Z,19.27
2022-10-01T01:10:57.498Z,19.70
2022-10-01T01:11:40.364Z,21.13
2022-10-01T01:12:40.429Z,18.77
2022-10-01T01:13:42.449Z,20.35
2022-10-01T01:14:27.138Z,18.38
2022-10-01T01:15:17.995Z,18.55
2022-10-01T01:16:12.498Z,18.35
2022-10-01T01:16:54.222Z,16.40
2022-10-01T01:17:35.167Z,19.23
2022-10-01T01:18:23.006Z,16.15
2022-10-01T01:19:02.738Z,18.70
2022-10-01T01:20:11.185Z,17.90
2022-10-01T01:20:45.621Z,19.52
2022-10-01T01:21:23.013Z,17.30
2022-10-01T01:22:00.823Z,19.63
2022-10-01T01:22:37.401Z,17.90
2022-10-01T01:23:16.166Z,22.02
2022-10-01T01:24:04.091Z,18.02
2022-10-01T01:24:41.978Z,20.50
2022-10-01T01:25:20.138Z,20.27
2022-10-01T01:26:13.837Z,21.30
2022-10-01T01:27:12.044Z,18.20
2022-10-01T01:27:54.043Z,18.88
2022-10-01T01:28:43.973Z,19.48
2022-10-01T01:29:27.007Z,19.38
2022-10-01T01:30:01.259Z,22.17
2022-10-01T01:30:34.297Z,19.08
2022-10-01T01:31:10.938Z,19.27
2022-10-01T01:31:48.968Z,20.30
2022-10-01T01:32:46.242Z,20.50
2022-10-01T01:33:22.019Z,22.88
2022-10-01T01:33:56.047Z,23.50
2022-10-01T01:34:31.749Z,21.13
2022-10-01T01:35:08.112Z,22.13
2022-10-01T01:35:48.140Z,20.25
2022-10-01T01:36:32.285Z,21.13
2022-10-01T01:37:12.059Z,19.92
2022-10-01T01:37:53.520Z,22.05
2022-10-01T01:38:29.894Z,22.20
2022-10-01T01:39:04.900Z,19.42
2022-10-01T01:39:37.073Z,21.90
2022-10-01T01:40:12.208Z,21.10
2022-10-01T01:40:50.259Z,19.95
2022-10-01T01:41:25.564Z,24.20
2022-10-01T01:42:04.091Z,21.33
2022-10-01T01:42:41.173Z,20.42
2022-10-01T01:43:20.873Z,21.23
2022-10-01T01:43:57.351Z,21.20
2022-10-01T01:44:36.341Z,21.98
2022-10-01T01:45:13.668Z,21.52
2022-10-01T01:45:48.122Z,19.35
2022-10-01T01:46:21.232Z,19.15
2022-10-01T01:46:56.447Z,18.90
2022-10-01T01:47:30.478Z,19.58
2022-10-01T01:48:03.744Z,20.20
2022-10-01T01:48:37.699Z,22.50
2022-10-01T01:49:09.613Z,23.70
2022-10-01T01:49:42.690Z,20.58
2022-10-01T01:50:16.932Z,23.25
2022-10-01T01:50:57.557Z,19.35
2022-10-01T01:51:36.081Z,20.27
2022-10-01T01:52:11.581Z,20.88
2022-10-01T01:52:43.511Z,19.05
2022-10-01T01:53:15.692Z,20.70
2022-10-01T01:53:47.811Z,21.60
2022-10-01T01:54:20.356Z,20.70
2022-10-01T01:54:52.268Z,22.13
2022-10-01T01:55:26.450Z,20.48
2022-10-01T01:56:00.261Z,20.13
2022-10-01T01:56:34.330Z,21.92
2022-10-01T01:57:07.182Z,19.52
2022-10-01T01:57:45.071Z,18.73
2022-10-01T01:58:18.864Z,21.10
2022-10-01T01:58:52.900Z,21.42
2022-10-01T01:59:26.818Z,21.25
2022-10-01T01:59:59.257Z,19.70
2022-10-01T02:00:31.028Z,20.15
2022-10-01T02:01:03.278Z,20.77
2022-10-01T02:01:39.579Z,20.83
2022-10-01T02:02:23.434Z,23.45
2022-10-01T02:02:57.617Z,23.00
2022-10-01T02:03:30.644Z,21.00
2022-10-01T02:04:05.912Z,19.52
2022-10-01T02:04:48.326Z,21.35
2022-10-01T02:05:25.980Z,23.48
2022-10-01T02:06:02.715Z,20.20
2022-10-01T02:06:57.888Z,23.15
2022-10-01T02:07:42.290Z,22.55
2022-10-01T02:08:27.832Z,19.73
2022-10-01T02:09:19.274Z,18.20
2022-10-01T02:10:10.033Z,20.88
2022-10-01T02:11:03.338Z,21.50
2022-10-01T02:11:44.688Z,20.75
2022-10-01T02:12:41.237Z,19.85
2022-10-01T02:13:44.036Z,19.67
2022-10-01T02:14:35.221Z,20.73
2022-10-01T02:15:25.438Z,20.25
2022-10-01T02:16:26.296Z,20.33
2022-10-01T02:17:05.000Z,19.85
2022-10-01T02:17:53.381Z,23.50
2022-10-01T02:18:33.958Z,23.00
2022-10-01T02:19:56.049Z,21.92
2022-10-01T02:20:39.652Z,22.98
2022-10-01T02:21:28.702Z,21.58
2022-10-01T02:22:08.890Z,21.58
2022-10-01T02:22:54.008Z,20.88
2022-10-01T02:23:30.629Z,19.88
2022-10-01T02:24:08.809Z,19.73
2022-10-01T02:24:58.613Z,21.17
2022-10-01T02:25:36.827Z,19.70
2022-10-01T02:26:15.063Z,22.52
2022-10-01T02:26:50.745Z,21.00
2022-10-01T02:27:45.372Z,22.65
2022-10-01T02:28:22.634Z,23.38
2022-10-01T02:28:58.232Z,23.50
2022-10-01T02:29:30.415Z,20.13
2022-10-01T02:30:07.878Z,23.50
2022-10-01T02:30:42.185Z,22.40
2022-10-01T02:31:16.531Z,22.00
2022-10-01T02:31:53.139Z,22.50
2022-10-01T02:32:28.214Z,19.80
2022-10-01T02:33:02.560Z,21.42
2022-10-01T02:33:36.583Z,19.48
2022-10-01T02:34:12.610Z,20.75
2022-10-01T02:34:47.659Z,18.50
2022-10-01T02:35:21.677Z,25.02
2022-10-01T02:35:55.264Z,22.90
2022-10-01T02:36:29.803Z,21.85
2022-10-01T02:37:05.257Z,22.02
2022-10-01T02:37:38.773Z,22.38
2022-10-01T02:38:13.976Z,20.77
2022-10-01T02:38:46.999Z,19.60
2022-10-01T02:39:22.194Z,21.05
2022-10-01T02:39:56.716Z,19.90
2022-10-01T02:40:31.567Z,19.60
2022-10-01T02:41:07.559Z,19.23
2022-10-01T02:41:41.224Z,21.27
2022-10-01T02:42:16.661Z,21.40
2022-10-01T02:42:55.187Z,19.13
2022-10-01T02:43:47.203Z,18.63
2022-10-01T02:44:23.942Z,19.27
2022-10-01T02:45:02.429Z,18.70
2022-10-01T02:45:37.713Z,19.73
2022-10-01T02:46:50.992Z,20.48
2022-10-01T02:47:43.839Z,18.55
2022-10-01T02:48:17.701Z,21.23
2022-10-01T02:48:51.735Z,18.83
2022-10-01T02:49:28.570Z,18.30
2022-10-01T02:50:03.894Z,19.40
2022-10-01T02:50:52.179Z,21.05
2022-10-01T02:51:43.317Z,16.30
2022-10-01T02:52:38.803Z,18.67
2022-10-01T02:53:38.360Z,17.77
2022-10-01T02:54:19.838Z,17.00
2022-10-01T02:55:00.387Z,19.58
2022-10-01T02:55:42.987Z,18.40
2022-10-01T02:56:35.267Z,19.42
2022-10-01T02:57:25.858Z,18.25
2022-10-01T02:57:58.155Z,20.90
2022-10-01T02:58:30.159Z,20.35
2022-10-01T02:59:02.041Z,22.15
2022-10-01T02:59:33.810Z,25.20
2022-10-01T03:00:12.393Z,21.42
2022-10-01T03:00:44.289Z,21.15
2022-10-01T03:01:16.589Z,23.20
2022-10-01T03:01:49.394Z,24.90
2022-10-01T03:02:22.590Z,22.88
2022-10-01T03:02:54.715Z,21.40
2022-10-01T03:03:27.681Z,20.73
2022-10-01T03:04:00.025Z,21.20
2022-10-01T03:04:32.058Z,22.08
2022-10-01T03:05:04.495Z,22.48
2022-10-01T03:05:36.345Z,22.92
2022-10-01T03:06:09.253Z,20.70
2022-10-01T03:06:41.073Z,19.95
2022-10-01T03:07:12.896Z,22.50
2022-10-01T03:07:44.713Z,20.83
2022-10-01T03:08:16.623Z,20.00
2022-10-01T03:08:48.539Z,20.77
2022-10-01T03:09:20.284Z,23.75
2022-10-01T03:09:52.441Z,21.20
2022-10-01T03:10:24.262Z,21.75
2022-10-01T03:10:56.286Z,21.10
2022-10-01T03:11:28.065Z,19.88
2022-10-01T03:12:01.003Z,22.40
2022-10-01T03:12:33.264Z,21.85
2022-10-01T03:13:06.520Z,21.10
2022-10-01T03:13:38.311Z,23.15
2022-10-01T03:14:10.976Z,20.77
2022-10-01T03:14:45.108Z,24.50
2022-10-01T03:15:21.698Z,22.13
2022-10-01T03:15:53.582Z,19.80
2022-10-01T03:16:25.538Z,22.17
2022-10-01T03:16:57.330Z,20.15
2022-10-01T03:17:29.609Z,21.42
2022-10-01T03:18:02.396Z,21.15
2022-10-01T03:18:34.222Z,22.15
2022-10-01T03:19:06.045Z,22.50
2022-10-01T03:19:37.901Z,19.63
2022-10-01T03:20:10.134Z,21.90
2022-10-01T03:20:41.909Z,22.90
2022-10-01T03:21:14.061Z,17.98
2022-10-01T03:21:46.541Z,19.70
2022-10-01T03:22:23.656Z,21.77
2022-10-01T03:22:55.524Z,20.38
2022-10-01T03:23:27.289Z,23.38
2022-10-01T03:23:59.072Z,20.25
2022-10-01T03:24:30.890Z,25.75
2022-10-01T03:25:02.994Z,20.50
2022-10-01T03:25:34.872Z,22.15
2022-10-01T03:26:06.625Z,20.70
2022-10-01T03:26:38.958Z,23.00
2022-10-01T03:27:10.724Z,21.90
2022-10-01T03:27:43.095Z,20.67
2022-10-01T03:28:15.025Z,19.83
2022-10-01T03:28:46.900Z,22.35
2022-10-01T03:29:18.680Z,21.10
2022-10-01T03:29:50.461Z,22.13
2022-10-01T03:30:22.267Z,24.38
2022-10-01T03:31:05.827Z,22.67
2022-10-01T03:31:38.359Z,20.20
2022-10-01T03:32:11.443Z,20.40
2022-10-01T03:32:43.178Z,23.20
2022-10-01T03:33:15.068Z,20.55
2022-10-01T03:33:46.865Z,21.13
2022-10-01T03:34:19.626Z,20.88
2022-10-01T03:34:51.386Z,21.88
2022-10-01T03:35:24.912Z,19.67
2022-10-01T03:35:56.718Z,20.10
2022-10-01T03:36:28.498Z,22.60
2022-10-01T03:37:01.281Z,20.88
2022-10-01T03:37:33.054Z,22.38
2022-10-01T03:38:04.877Z,20.73
2022-10-01T03:38:36.635Z,21.05
2022-10-01T03:39:08.498Z,21.83
2022-10-01T03:39:40.231Z,20.55
2022-10-01T03:40:12.058Z,20.73
2022-10-01T03:40:43.901Z,18.98
2022-10-01T03:41:15.669Z,21.58
2022-10-01T03:41:47.669Z,21.88
2022-10-01T03:42:19.495Z,20.10
2022-10-01T03:42:51.281Z,19.40
2022-10-01T03:43:23.087Z,17.70
2022-10-01T03:44:00.283Z,20.83
2022-10-01T03:44:33.001Z,17.85
2022-10-01T03:45:04.989Z,18.77
2022-10-01T03:45:36.782Z,19.20
2022-10-01T03:46:08.801Z,19.50
2022-10-01T03:46:40.651Z,17.83
2022-10-01T03:47:12.447Z,18.33
2022-10-01T03:47:44.272Z,18.08
2022-10-01T03:48:18.292Z,19.23
2022-10-01T03:48:50.640Z,19.58
2022-10-01T03:49:22.449Z,21.13
2022-10-01T03:49:54.208Z,19.25
2022-10-01T03:50:26.065Z,17.38
2022-10-01T03:50:59.483Z,18.83
2022-10-01T03:51:32.814Z,17.92
2022-10-01T03:52:06.078Z,18.17
2022-10-01T03:52:37.889Z,17.77
2022-10-01T03:53:10.124Z,20.05
2022-10-01T03:53:41.860Z,17.23
2022-10-01T03:54:13.674Z,17.63
2022-10-01T03:54:45.433Z,18.55
2022-10-01T03:55:17.534Z,18.50
2022-10-01T03:55:49.846Z,19.13
2022-10-01T03:56:21.674Z,18.48
2022-10-01T03:56:53.477Z,17.17
2022-10-01T03:57:25.289Z,15.65
2022-10-01T03:57:58.642Z,18.70
2022-10-01T03:58:30.935Z,18.65
2022-10-01T03:59:02.781Z,17.35
2022-10-01T03:59:36.002Z,17.95
2022-10-01T04:00:09.204Z,18.30
2022-10-01T04:00:44.152Z,18.00
2022-10-01T04:01:16.814Z,17.95
2022-10-01T04:01:48.837Z,15.77
2022-10-01T04:02:22.026Z,17.73
2022-10-01T04:02:53.988Z,17.17
2022-10-01T04:03:26.100Z,16.15
2022-10-01T04:03:58.960Z,18.65
2022-10-01T04:04:30.889Z,16.65
2022-10-01T04:05:02.690Z,17.77
2022-10-01T04:05:34.550Z,19.27
2022-10-01T04:06:06.380Z,17.40
2022-10-01T04:06:38.175Z,18.88
2022-10-01T04:07:09.902Z,20.85
2022-10-01T04:07:42.517Z,17.17
2022-10-01T04:08:14.715Z,16.83
2022-10-01T04:08:46.800Z,18.75
2022-10-01T04:09:18.700Z,17.00
2022-10-01T04:09:51.062Z,16.27
2022-10-01T04:10:22.813Z,17.27
2022-10-01T04:10:54.619Z,18.02
2022-10-01T04:11:26.419Z,21.15
2022-10-01T04:11:58.203Z,18.48
2022-10-01T04:12:30.365Z,17.75
2022-10-01T04:13:02.554Z,21.17
2022-10-01T04:13:35.329Z,16.33
2022-10-01T04:14:07.312Z,19.17
2022-10-01T04:14:39.053Z,18.45
2022-10-01T04:15:11.321Z,18.67
2022-10-01T04:15:43.203Z,16.95
2022-10-01T04:16:16.053Z,17.40
2022-10-01T04:16:52.478Z,19.90
2022-10-01T04:17:24.373Z,17.23
2022-10-01T04:17:56.439Z,17.67
2022-10-01T04:18:28.945Z,18.50
2022-10-01T04:19:00.895Z,16.35
2022-10-01T04:19:32.694Z,17.85
2022-10-01T04:20:04.718Z,16.92
2022-10-01T04:20:37.844Z,17.77
2022-10-01T04:21:09.686Z,16.40
2022-10-01T04:21:41.615Z,16.95
2022-10-01T04:22:13.404Z,16.70
2022-10-01T04:22:46.149Z,17.30
2022-10-01T04:23:17.941Z,17.13
2022-10-01T04:23:50.277Z,16.42
2022-10-01T04:24:22.025Z,14.77
2022-10-01T04:24:54.175Z,16.20
2022-10-01T04:25:26.948Z,16.70
2022-10-01T04:26:03.104Z,16.73
2022-10-01T04:26:34.869Z,17.33
2022-10-01T04:27:06.634Z,15.63
2022-10-01T04:27:39.759Z,16.33
2022-10-01T04:28:13.667Z,15.20
2022-10-01T04:28:46.915Z,16.55
2022-10-01T04:29:18.724Z,16.33
2022-10-01T04:29:50.564Z,16.75
2022-10-01T04:30:23.128Z,17.30
2022-10-01T04:31:14.893Z,16.50
2022-10-01T04:31:46.758Z,18.08
2022-10-01T04:32:21.512Z,16.90
2022-10-01T04:32:53.585Z,18.02
2022-10-01T04:33:25.391Z,19.88
2022-10-01T04:33:58.394Z,15.73
2022-10-01T04:34:48.562Z,16.63
2022-10-01T04:35:21.318Z,16.75
2022-10-01T04:35:53.180Z,16.55
2022-10-01T04:36:25.306Z,16.25
2022-10-01T04:36:57.089Z,13.98
2022-10-01T04:37:28.916Z,17.17
2022-10-01T04:38:05.860Z,21.80
2022-10-01T04:38:38.187Z,20.25
2022-10-01T04:39:10.594Z,22.77
2022-10-01T04:39:42.391Z,26.35
2022-10-01T04:40:14.171Z,24.95
2022-10-01T04:40:45.987Z,23.33
2022-10-01T04:41:17.795Z,25.40
2022-10-01T04:41:49.945Z,23.02
2022-10-01T04:42:22.906Z,19.60
2022-10-01T04:42:54.675Z,18.45
2022-10-01T04:43:26.492Z,20.77
2022-10-01T04:44:00.065Z,20.65
2022-10-01T04:44:32.884Z,18.77
2022-10-01T04:45:06.538Z,19.20
2022-10-01T04:45:38.590Z,18.58
2022-10-01T04:46:10.327Z,19.25
2022-10-01T04:46:42.122Z,20.10
2022-10-01T04:47:13.924Z,17.95
2022-10-01T04:47:53.948Z,16.92
2022-10-01T04:48:25.886Z,14.55
2022-10-01T04:48:58.154Z,16.75
2022-10-01T04:49:30.977Z,16.20
2022-10-01T04:50:02.931Z,17.58
2022-10-01T04:50:34.974Z,13.82
2022-10-01T04:51:06.740Z,17.70
2022-10-01T04:51:38.566Z,15.38
2022-10-01T04:52:10.310Z,15.57
2022-10-01T04:52:42.302Z,17.38
2022-10-01T04:53:14.130Z,15.52
2022-10-01T04:53:45.872Z,16.13
2022-10-01T04:54:17.625Z,15.25
2022-10-01T04:54:52.234Z,15.10
2022-10-01T04:55:25.305Z,15.27
2022-10-01T04:55:57.184Z,17.10
2022-10-01T04:56:28.926Z,14.35
2022-10-01T04:57:00.742Z,14.98
2022-10-01T04:57:35.082Z,14.55
2022-10-01T04:58:06.878Z,15.10
2022-10-01T04:58:38.697Z,13.40
2022-10-01T04:59:10.569Z,15.23
2022-10-01T04:59:42.359Z,14.00
2022-10-01T05:00:17.374Z,15.20
2022-10-01T05:00:50.339Z,15.25
2022-10-01T05:01:22.143Z,14.05
2022-10-01T05:01:55.315Z,15.45
2022-10-01T05:02:27.147Z,15.63
2022-10-01T05:02:58.986Z,14.85
2022-10-01T05:03:31.655Z,15.40
2022-10-01T05:04:03.853Z,13.20
2022-10-01T05:04:35.565Z,15.35
2022-10-01T05:05:07.980Z,15.57
2022-10-01T05:05:40.808Z,14.05
2022-10-01T05:06:12.957Z,15.02
2022-10-01T05:06:44.738Z,16.88
2022-10-01T05:07:16.541Z,15.57
2022-10-01T05:07:48.720Z,13.88
2022-10-01T05:08:21.007Z,14.75
2022-10-01T05:08:52.890Z,13.27
2022-10-01T05:09:24.763Z,13.15
2022-10-01T05:09:56.778Z,13.57
2022-10-01T05:10:28.524Z,12.88
2022-10-01T05:11:00.612Z,15.27
2022-10-01T05:11:32.774Z,14.20
2022-10-01T05:12:04.885Z,14.57
2022-10-01T05:12:36.705Z,14.32
2022-10-01T05:13:08.981Z,14.32
2022-10-01T05:13:41.648Z,12.18
2022-10-01T05:14:15.220Z,15.00
2022-10-01T05:14:47.312Z,13.40
2022-10-01T05:15:19.720Z,12.30
2022-10-01T05:15:52.150Z,14.52
2022-10-01T05:16:24.177Z,14.02
2022-10-01T05:16:55.968Z,13.30
2022-10-01T05:17:27.763Z,13.68
2022-10-01T05:17:59.662Z,13.30
2022-10-01T05:18:32.410Z,15.57
2022-10-01T05:19:04.864Z,14.35
2022-10-01T05:19:36.684Z,12.88
2022-10-01T05:20:15.536Z,13.95
2022-10-01T05:20:47.322Z,13.10
2022-10-01T05:21:19.414Z,11.77
2022-10-01T05:21:51.927Z,13.88
2022-10-01T05:22:23.707Z,12.38
2022-10-01T05:22:56.504Z,11.90
2022-10-01T05:23:28.322Z,13.60
2022-10-01T05:24:00.561Z,14.98
2022-10-01T05:24:32.314Z,14.93
2022-10-01T05:25:07.031Z,12.57
2022-10-01T05:25:38.783Z,12.75
2022-10-01T05:26:10.568Z,12.98
2022-10-01T05:26:42.349Z,12.70
2022-10-01T05:27:14.182Z,14.25
2022-10-01T05:27:46.261Z,12.25
2022-10-01T05:28:22.342Z,11.73
2022-10-01T05:28:54.839Z,14.30
2022-10-01T05:29:26.822Z,14.13
2022-10-01T05:29:58.567Z,12.18
2022-10-01T05:30:30.374Z,14.65
2022-10-01T05:31:03.538Z,14.50
2022-10-01T05:31:35.675Z,11.57
2022-10-01T05:32:09.139Z,11.75
2022-10-01T05:32:41.859Z,12.43
2022-10-01T05:33:13.703Z,12.63
2022-10-01T05:33:45.523Z,11.55
2022-10-01T05:34:17.446Z,12.18
2022-10-01T05:34:53.486Z,16.92
2022-10-01T05:35:26.572Z,12.80
2022-10-01T05:35:58.876Z,15.57
2022-10-01T05:36:31.004Z,16.08
2022-10-01T05:37:09.606Z,12.38
2022-10-01T05:37:41.862Z,13.50
2022-10-01T05:38:14.349Z,12.38
2022-10-01T05:38:48.695Z,11.88
2022-10-01T05:39:20.464Z,15.73
2022-10-01T05:39:52.269Z,14.82
2022-10-01T05:40:27.338Z,14.98
2022-10-01T05:41:00.049Z,13.90
2022-10-01T05:41:32.554Z,13.63
2022-10-01T05:42:06.561Z,12.85
2022-10-01T05:42:38.636Z,14.00
2022-10-01T05:43:10.773Z,12.13
2022-10-01T05:43:43.918Z,13.38
2022-10-01T05:44:15.738Z,14.48
2022-10-01T05:44:47.523Z,13.20
2022-10-01T05:45:20.956Z,14.90
2022-10-01T05:45:52.831Z,12.82
2022-10-01T05:46:24.691Z,13.93
2022-10-01T05:46:56.710Z,16.20
2022-10-01T05:47:28.517Z,16.35
2022-10-01T05:48:02.464Z,16.02
2022-10-01T05:48:37.086Z,13.43
2022-10-01T05:49:10.558Z,14.52
2022-10-01T05:49:44.427Z,13.43
2022-10-01T05:50:16.839Z,12.93
2022-10-01T05:50:49.950Z,15.35
2022-10-01T05:51:21.811Z,13.15
2022-10-01T05:51:53.548Z,14.45
2022-10-01T05:52:25.388Z,13.80
2022-10-01T05:52:57.796Z,12.45
2022-10-01T05:53:29.820Z,12.13
2022-10-01T05:54:04.352Z,12.63
2022-10-01T05:54:36.571Z,12.52
2022-10-01T05:55:09.210Z,12.60
2022-10-01T05:55:41.097Z,11.57
2022-10-01T05:56:12.887Z,13.10
2022-10-01T05:56:44.960Z,11.75
2022-10-01T05:57:16.731Z,11.15
2022-10-01T05:58:05.429Z,15.57
2022-10-01T05:58:37.187Z,12.95
2022-10-01T05:59:09.182Z,11.85
2022-10-01T05:59:40.937Z,13.80
2022-10-01T06:00:13.741Z,11.35
2022-10-01T06:00:45.664Z,11.77
2022-10-01T06:01:17.437Z,12.93
2022-10-01T06:01:49.606Z,13.20
2022-10-01T06:02:23.027Z,13.65
2022-10-01T06:02:56.603Z,18.15
2022-10-01T06:03:29.718Z,13.98
2022-10-01T06:04:01.715Z,13.00
2022-10-01T06:04:38.967Z,13.55
2022-10-01T06:05:12.856Z,11.52
2022-10-01T06:05:44.826Z,12.60
2022-10-01T06:06:24.514Z,11.45
2022-10-01T06:06:56.393Z,11.88
2022-10-01T06:07:31.529Z,12.48
2022-10-01T06:08:07.474Z,11.68
2022-10-01T06:08:39.654Z,12.55
2022-10-01T06:09:11.686Z,13.55
2022-10-01T06:09:43.422Z,13.82
2022-10-01T06:10:15.831Z,11.48
2022-10-01T06:10:48.248Z,12.75
2022-10-01T06:11:22.534Z,12.02
2022-10-01T06:11:55.224Z,12.02
2022-10-01T06:12:27.192Z,13.10
2022-10-01T06:13:04.260Z,11.38
2022-10-01T06:13:36.153Z,11.95
2022-10-01T06:14:07.997Z,12.00
2022-10-01T06:14:39.829Z,11.95
2022-10-01T06:15:13.054Z,13.65
2022-10-01T06:15:47.058Z,10.27
2022-10-01T06:16:20.781Z,11.88
2022-10-01T06:16:55.311Z,12.73
2022-10-01T06:17:27.146Z,10.80
2022-10-01T06:18:02.815Z,13.38
2022-10-01T06:18:34.623Z,11.27
2022-10-01T06:19:06.402Z,12.98
2022-10-01T06:19:38.224Z,12.77
2022-10-01T06:20:12.793Z,13.75
2022-10-01T06:20:44.661Z,12.00
2022-10-01T06:21:16.597Z,14.95
2022-10-01T06:21:48.395Z,11.75
2022-10-01T06:22:21.613Z,11.15
2022-10-01T06:22:55.713Z,19.13
2022-10-01T06:23:27.501Z,15.60
2022-10-01T06:23:59.261Z,12.57
2022-10-01T06:24:31.766Z,11.80
2022-10-01T06:25:04.279Z,12.82
2022-10-01T06:25:38.256Z,10.77
2022-10-01T06:26:10.171Z,13.15
2022-10-01T06:26:42.014Z,12.88
2022-10-01T06:27:13.745Z,13.18
2022-10-01T06:27:56.269Z,12.35
2022-10-01T06:28:28.316Z,9.65
2022-10-01T06:29:00.188Z,11.52
2022-10-01T06:29:31.921Z,11.88
2022-10-01T06:30:04.664Z,10.20
2022-10-01T06:30:38.692Z,10.07
2022-10-01T06:31:10.544Z,10.77
2022-10-01T06:31:42.446Z,10.07
2022-10-01T06:32:19.641Z,9.85
2022-10-01T06:32:51.400Z,11.93
2022-10-01T06:33:23.241Z,10.63
2022-10-01T06:33:55.084Z,10.95
2022-10-01T06:34:26.872Z,11.73
2022-10-01T06:34:58.642Z,12.70
2022-10-01T06:35:34.498Z,11.63
2022-10-01T06:36:06.590Z,10.10
2022-10-01T06:36:38.431Z,10.57
2022-10-01T06:37:10.176Z,11.07
2022-10-01T06:37:41.954Z,9.77
2022-10-01T06:38:14.884Z,10.15
2022-10-01T06:38:49.755Z,10.55
2022-10-01T06:39:21.506Z,10.88
2022-10-01T06:39:53.321Z,9.60
2022-10-01T06:40:25.311Z,10.75
2022-10-01T06:40:59.282Z,9.57
2022-10-01T06:41:31.158Z,12.63
2022-10-01T06:42:03.112Z,9.95
2022-10-01T06:42:34.852Z,12.85
2022-10-01T06:43:10.171Z,10.50
2022-10-01T06:43:42.037Z,11.60
2022-10-01T06:44:13.823Z,11.90
2022-10-01T06:44:45.633Z,10.43
2022-10-01T06:45:18.126Z,10.75
2022-10-01T06:45:50.030Z,9.40
2022-10-01T06:46:22.038Z,10.85
2022-10-01T06:46:54.831Z,10.55
2022-10-01T06:47:26.618Z,11.88
2022-10-01T06:48:02.647Z,14.85
2022-10-01T06:48:36.444Z,10.55
2022-10-01T06:49:08.441Z,12.10
2022-10-01T06:49:40.272Z,12.80
2022-10-01T06:50:12.191Z,13.40
2022-10-01T06:50:45.150Z,9.40
2022-10-01T06:51:37.081Z,11.13
2022-10-01T06:52:28.332Z,12.05
2022-10-01T06:53:01.994Z,9.82
2022-10-01T06:53:33.848Z,9.75
2022-10-01T06:54:06.229Z,12.32
2022-10-01T06:54:37.992Z,10.75
2022-10-01T06:55:14.319Z,10.23
2022-10-01T06:55:49.921Z,10.27
2022-10-01T06:56:21.799Z,13.90
2022-10-01T06:56:53.675Z,9.75
2022-10-01T06:57:25.652Z,10.35
2022-10-01T06:58:01.321Z,19.95
2022-10-01T06:58:33.541Z,10.43
2022-10-01T06:59:05.385Z,11.63
2022-10-01T06:59:37.227Z,12.20
2022-10-01T07:00:09.596Z,9.70
2022-10-01T07:00:42.575Z,9.27
2022-10-01T07:01:16.986Z,11.07
2022-10-01T07:01:55.488Z,11.07
2022-10-01T07:02:28.998Z,10.32
2022-10-01T07:03:01.179Z,12.23
2022-10-01T07:03:32.986Z,14.55
2022-10-01T07:04:04.726Z,13.88
2022-10-01T07:04:36.496Z,10.30
2022-10-01T07:05:08.627Z,10.30
2022-10-01T07:05:40.905Z,11.15
2022-10-01T07:06:12.852Z,10.95
2022-10-01T07:06:44.671Z,12.23
2022-10-01T07:07:16.504Z,10.50
2022-10-01T07:07:51.450Z,10.23
2022-10-01T07:08:23.930Z,14.77
2022-10-01T07:08:56.441Z,10.77
2022-10-01T07:09:28.325Z,11.80
2022-10-01T07:10:00.588Z,10.43
2022-10-01T07:10:34.344Z,12.48
2022-10-01T07:11:06.178Z,15.73
2022-10-01T07:11:41.331Z,11.00
2022-10-01T07:12:13.083Z,13.55
2022-10-01T07:12:46.121Z,13.23
2022-10-01T07:13:20.276Z,11.52
2022-10-01T07:13:54.499Z,11.10
2022-10-01T07:14:26.616Z,9.85
2022-10-01T07:14:58.398Z,10.32
2022-10-01T07:15:31.140Z,10.07
2022-10-01T07:16:04.465Z,11.43
2022-10-01T07:16:39.235Z,11.80
2022-10-01T07:17:11.331Z,10.95
2022-10-01T07:17:48.969Z,12.18
2022-10-01T07:18:20.772Z,11.68
2022-10-01T07:18:52.550Z,11.80
2022-10-01T07:19:24.336Z,9.50
2022-10-01T07:19:56.095Z,9.60
2022-10-01T07:20:28.198Z,11.07
2022-10-01T07:21:01.385Z,10.85
2022-10-01T07:21:33.535Z,10.63
2022-10-01T07:22:05.915Z,15.02
2022-10-01T07:22:37.805Z,11.13
2022-10-01T07:23:14.378Z,10.35
2022-10-01T07:23:48.159Z,11.38
2022-10-01T07:24:20.064Z,9.32
2022-10-01T07:24:52.265Z,9.07
2022-10-01T07:25:25.133Z,9.75
2022-10-01T07:25:56.940Z,11.55
2022-10-01T07:26:28.738Z,10.15
2022-10-01T07:27:05.033Z,10.40